createdAt,value
2022-09-12T00:00:12.674Z,4.10
2022-09-12T00:01:35.708Z,3.90
2022-09-12T00:02:38.825Z,3.80
2022-09-12T00:03:42.020Z,3.90
2022-09-12T00:04:45.417Z,4.30
2022-09-12T00:05:48.426Z,4.40
2022-09-12T00:06:51.410Z,4.40
2022-09-12T00:07:54.701Z,3.90
2022-09-12T00:09:04.493Z,3.90
2022-09-12T00:10:08.469Z,4.30
2022-09-12T00:11:13.698Z,4.10
2022-09-12T00:12:16.677Z,4.30
2022-09-12T00:13:19.770Z,4.20
2022-09-12T00:14:22.815Z,4.60
2022-09-12T00:15:25.768Z,4.10
2022-09-12T00:16:31.452Z,3.90
2022-09-12T00:17:35.526Z,4.30
2022-09-12T00:18:38.615Z,4.50
2022-09-12T00:19:41.666Z,4.30
2022-09-12T00:20:46.524Z,4.40
2022-09-12T00:21:49.836Z,4.10
2022-09-12T00:22:52.784Z,4.20
2022-09-12T00:23:56.045Z,4.40
2022-09-12T00:25:02.582Z,4.50
2022-09-12T00:26:07.310Z,4.40
2022-09-12T00:27:10.477Z,4.30
2022-09-12T00:28:15.318Z,4.50
2022-09-12T00:29:21.015Z,4.40
2022-09-12T00:30:24.175Z,4.60
2022-09-12T00:31:28.280Z,4.40
2022-09-12T00:32:31.630Z,4.30
2022-09-12T00:33:36.013Z,4.80
2022-09-12T00:34:39.586Z,4.80
2022-09-12T00:35:49.067Z,4.50
2022-09-12T00:36:52.240Z,4.40
2022-09-12T00:37:55.860Z,4.50
2022-09-12T00:38:59.462Z,4.40
2022-09-12T00:40:03.452Z,4.50
2022-09-12T00:41:06.640Z,4.60
2022-09-12T00:42:10.761Z,4.00
2022-09-12T00:43:33.777Z,4.50
2022-09-12T00:44:44.778Z,4.20
2022-09-12T00:45:48.032Z,4.40
2022-09-12T00:46:55.103Z,4.20
2022-09-12T00:48:03.632Z,4.40
2022-09-12T00:49:43.151Z,4.60
2022-09-12T00:50:46.253Z,4.50
2022-09-12T00:51:54.877Z,4.40
2022-09-12T00:53:06.586Z,4.50
2022-09-12T00:54:14.575Z,4.90
2022-09-12T00:55:28.152Z,4.50
2022-09-12T00:56:31.550Z,4.70
2022-09-12T00:57:59.620Z,5.00
2022-09-12T00:59:15.544Z,4.70
2022-09-12T01:00:22.879Z,4.20
2022-09-12T01:01:29.220Z,4.20
2022-09-12T01:02:38.223Z,4.70
2022-09-12T01:03:41.969Z,4.40
2022-09-12T01:04:45.295Z,4.40
2022-09-12T01:06:11.379Z,4.70
2022-09-12T01:07:15.656Z,4.70
2022-09-12T01:08:20.062Z,4.50
2022-09-12T01:09:24.468Z,4.60
2022-09-12T01:10:27.611Z,4.60
2022-09-12T01:11:34.554Z,4.50
2022-09-12T01:12:40.991Z,4.10
2022-09-12T01:13:45.341Z,5.00
2022-09-12T01:14:48.360Z,4.90
2022-09-12T01:15:51.819Z,4.60
2022-09-12T01:16:54.892Z,4.50
2022-09-12T01:18:04.717Z,4.60
2022-09-12T01:19:35.635Z,4.80
2022-09-12T01:21:27.726Z,4.00
2022-09-12T01:23:03.617Z,4.00
2022-09-12T01:24:09.400Z,4.40
2022-09-12T01:25:34.131Z,4.60
2022-09-12T01:26:52.115Z,4.40
2022-09-12T01:28:23.499Z,4.50
2022-09-12T01:29:35.271Z,4.10
2022-09-12T01:30:56.228Z,4.60
2022-09-12T01:32:33.396Z,4.30
2022-09-12T01:34:07.016Z,4.50
2022-09-12T01:35:23.115Z,4.10
2022-09-12T01:36:38.624Z,4.10
2022-09-12T01:38:08.682Z,4.50
2022-09-12T01:39:28.141Z,4.40
2022-09-12T01:40:45.971Z,4.00
2022-09-12T01:42:16.129Z,4.30
2022-09-12T01:43:40.201Z,4.40
2022-09-12T01:44:54.278Z,4.30
2022-09-12T01:46:12.100Z,4.60
2022-09-12T01:47:31.306Z,4.90
2022-09-12T01:48:40.812Z,4.50
2022-09-12T01:49:59.705Z,4.80
2022-09-12T01:51:13.603Z,4.70
2022-09-12T01:52:25.302Z,4.80
2022-09-12T01:53:36.091Z,5.20
2022-09-12T01:54:46.498Z,4.90
2022-09-12T01:55:56.188Z,4.80
2022-09-12T01:57:04.276Z,4.70
2022-09-12T01:58:20.109Z,4.70
2022-09-12T01:59:33.512Z,4.90
2022-09-12T02:00:55.940Z,4.90
2022-09-12T02:02:02.086Z,4.90
2022-09-12T02:03:21.308Z,5.10
2022-09-12T02:04:36.866Z,5.30
2022-09-12T02:06:03.312Z,4.90
2022-09-12T02:07:13.412Z,5.00
2022-09-12T02:08:48.700Z,5.30
2022-09-12T02:10:18.059Z,5.00
2022-09-12T02:11:21.840Z,5.10
2022-09-12T02:12:35.170Z,5.40
2022-09-12T02:13:43.863Z,5.70
2022-09-12T02:14:54.119Z,5.30
2022-09-12T02:16:08.669Z,5.20
2022-09-12T02:17:15.122Z,5.10
2022-09-12T02:18:19.991Z,5.20
2022-09-12T02:19:29.767Z,5.40
2022-09-12T02:20:48.497Z,5.30
2022-09-12T02:21:58.379Z,5.70
2022-09-12T02:23:03.171Z,5.50
2022-09-12T02:24:10.600Z,5.40
2022-09-12T02:25:18.506Z,5.00
2022-09-12T02:26:26.150Z,5.10
2022-09-12T02:27:44.839Z,5.20
2022-09-12T02:28:48.220Z,5.30
2022-09-12T02:29:52.400Z,5.30
2022-09-12T02:31:23.451Z,5.10
2022-09-12T02:32:31.356Z,5.10
2022-09-12T02:33:49.425Z,5.60
2022-09-12T02:35:00.967Z,5.00
2022-09-12T02:36:31.950Z,5.10
2022-09-12T02:37:53.714Z,5.30
2022-09-12T02:38:56.860Z,4.90
2022-09-12T02:40:01.211Z,5.20
2022-09-12T02:41:04.520Z,5.10
2022-09-12T02:42:08.016Z,5.30
2022-09-12T02:43:11.479Z,5.10
2022-09-12T02:44:14.614Z,5.30
2022-09-12T02:45:18.550Z,5.40
2022-09-12T02:46:33.401Z,5.20
2022-09-12T02:47:44.677Z,5.10
2022-09-12T02:48:48.730Z,5.50
2022-09-12T02:49:52.805Z,5.60
2022-09-12T02:50:56.532Z,5.40
2022-09-12T02:52:00.133Z,5.30
2022-09-12T02:53:05.818Z,5.70
2022-09-12T02:54:10.241Z,5.30
2022-09-12T02:55:15.051Z,5.20
2022-09-12T02:56:31.773Z,5.40
2022-09-12T02:57:34.781Z,4.60
2022-09-12T02:58:37.966Z,4.60
2022-09-12T02:59:41.173Z,4.80
2022-09-12T03:00:47.168Z,8.20
2022-09-12T03:02:28.472Z,3.90
2022-09-12T03:03:50.346Z,3.20
2022-09-12T03:05:22.268Z,3.20
2022-09-12T03:06:38.077Z,4.20
2022-09-12T03:07:49.946Z,4.50
2022-09-12T03:09:34.586Z,4.00
2022-09-12T03:10:53.727Z,3.80
2022-09-12T03:12:12.118Z,3.90
2022-09-12T03:13:34.525Z,4.20
2022-09-12T03:15:16.197Z,4.20
2022-09-12T03:16:25.106Z,3.80
2022-09-12T03:17:40.217Z,4.80
2022-09-12T03:19:22.259Z,4.50
2022-09-12T03:21:04.691Z,4.50
2022-09-12T03:22:28.776Z,4.20
2022-09-12T03:23:45.760Z,4.40
2022-09-12T03:25:00.843Z,4.40
2022-09-12T03:26:14.192Z,4.30
2022-09-12T03:27:28.113Z,4.20
2022-09-12T03:28:45.730Z,4.40
2022-09-12T03:29:50.820Z,5.20
2022-09-12T03:30:57.063Z,4.80
2022-09-12T03:32:00.173Z,4.80
2022-09-12T03:33:03.249Z,4.90
2022-09-12T03:34:06.978Z,4.60
2022-09-12T03:35:11.087Z,4.70
2022-09-12T03:36:22.703Z,4.40
2022-09-12T03:37:25.781Z,3.60
2022-09-12T03:38:29.278Z,3.40
2022-09-12T03:39:33.005Z,3.50
2022-09-12T03:40:37.351Z,3.50
2022-09-12T03:41:43.262Z,4.40
2022-09-12T03:42:46.388Z,3.50
2022-09-12T03:43:50.770Z,3.50
2022-09-12T03:44:53.816Z,3.70
2022-09-12T03:45:56.977Z,3.40
2022-09-12T03:47:00.371Z,3.60
2022-09-12T03:48:04.818Z,4.00
2022-09-12T03:49:07.886Z,3.20
2022-09-12T03:50:10.951Z,4.20
2022-09-12T03:51:14.040Z,3.40
2022-09-12T03:52:17.168Z,4.10
2022-09-12T03:53:20.166Z,2.90
2022-09-12T03:54:23.441Z,3.50
2022-09-12T03:55:26.923Z,3.80
2022-09-12T03:56:30.735Z,3.30
2022-09-12T03:57:33.853Z,4.00
2022-09-12T03:58:37.163Z,3.60
2022-09-12T03:59:40.462Z,3.30
2022-09-12T04:00:44.476Z,3.30
2022-09-12T04:01:47.508Z,3.40
2022-09-12T04:02:55.286Z,3.20
2022-09-12T04:03:58.416Z,2.80
2022-09-12T04:05:01.632Z,2.90
2022-09-12T04:06:07.081Z,3.10
2022-09-12T04:07:11.687Z,2.80
2022-09-12T04:08:15.215Z,2.60
2022-09-12T04:09:18.330Z,3.10
2022-09-12T04:10:21.528Z,2.90
2022-09-12T04:11:24.860Z,2.90
2022-09-12T04:12:29.844Z,3.30
2022-09-12T04:13:34.775Z,2.80
2022-09-12T04:14:37.876Z,3.00
2022-09-12T04:15:40.927Z,2.90
2022-09-12T04:16:44.133Z,2.90
2022-09-12T04:17:47.181Z,3.40
2022-09-12T04:18:50.200Z,2.70
2022-09-12T04:19:53.310Z,3.20
2022-09-12T04:20:56.321Z,2.90
2022-09-12T04:21:59.718Z,2.90
2022-09-12T04:23:02.852Z,3.30
2022-09-12T04:24:06.088Z,3.40
2022-09-12T04:25:09.726Z,3.90
2022-09-12T04:26:17.566Z,3.60
2022-09-12T04:27:20.537Z,3.10
2022-09-12T04:28:24.413Z,3.30
2022-09-12T04:29:28.102Z,3.20
2022-09-12T04:30:31.321Z,3.40
2022-09-12T04:31:34.361Z,3.30
2022-09-12T04:32:38.070Z,3.40
2022-09-12T04:33:44.125Z,2.80
2022-09-12T04:34:47.266Z,2.70
2022-09-12T04:35:50.721Z,3.00
2022-09-12T04:36:53.937Z,2.60
2022-09-12T04:37:57.366Z,2.60
2022-09-12T04:39:02.655Z,2.80
2022-09-12T04:40:06.117Z,2.40
2022-09-12T04:41:27.349Z,2.40
2022-09-12T04:42:30.270Z,2.50
2022-09-12T04:43:33.242Z,2.20
2022-09-12T04:44:36.249Z,2.40
2022-09-12T04:45:39.373Z,2.30
2022-09-12T04:46:45.107Z,2.20
2022-09-12T04:47:48.935Z,2.30
2022-09-12T04:48:56.080Z,2.20
2022-09-12T04:50:00.133Z,2.20
2022-09-12T04:51:18.247Z,2.50
2022-09-12T04:52:21.292Z,2.10
2022-09-12T04:53:24.326Z,2.20
2022-09-12T04:54:27.428Z,2.00
2022-09-12T04:55:30.521Z,2.60
2022-09-12T04:56:37.055Z,2.80
2022-09-12T04:57:40.995Z,2.10
2022-09-12T04:58:46.537Z,2.40
2022-09-12T04:59:50.028Z,2.50
2022-09-12T05:00:54.495Z,3.20
2022-09-12T05:01:57.662Z,2.70
2022-09-12T05:03:00.790Z,2.60
2022-09-12T05:04:04.484Z,2.40
2022-09-12T05:05:08.550Z,2.10
2022-09-12T05:06:15.374Z,2.00
2022-09-12T05:07:19.597Z,2.00
2022-09-12T05:08:22.876Z,1.60
2022-09-12T05:09:25.924Z,1.70
2022-09-12T05:10:29.008Z,1.80
2022-09-12T05:12:02.737Z,1.80
2022-09-12T05:12:59.794Z,1.90
2022-09-12T05:14:04.171Z,1.60
2022-09-12T05:15:07.976Z,1.50
2022-09-12T05:16:13.874Z,1.70
2022-09-12T05:17:17.432Z,1.70
2022-09-12T05:18:21.591Z,1.60
2022-09-12T05:19:24.623Z,1.70
2022-09-12T05:20:27.778Z,1.70
2022-09-12T05:21:36.896Z,1.60
2022-09-12T05:22:40.024Z,2.30
2022-09-12T05:23:43.482Z,2.50
2022-09-12T05:24:50.676Z,2.00
2022-09-12T05:25:56.659Z,2.30
2022-09-12T05:26:59.960Z,2.50
2022-09-12T05:28:03.137Z,2.50
2022-09-12T05:29:07.342Z,3.00
2022-09-12T05:30:18.684Z,2.50
2022-09-12T05:31:31.544Z,2.80
2022-09-12T05:32:35.519Z,4.10
2022-09-12T05:33:40.688Z,3.30
2022-09-12T05:34:43.829Z,3.90
2022-09-12T05:35:52.510Z,4.00
2022-09-12T05:36:55.745Z,3.80
2022-09-12T05:37:59.179Z,3.00
2022-09-12T05:39:02.267Z,2.80
2022-09-12T05:40:07.876Z,3.50
2022-09-12T05:41:17.569Z,2.80
2022-09-12T05:43:25.119Z,3.30
2022-09-12T05:44:28.507Z,3.20
2022-09-12T05:45:32.578Z,3.30
2022-09-12T05:46:41.648Z,3.20
2022-09-12T05:47:47.346Z,3.50
2022-09-12T05:48:55.611Z,3.10
2022-09-12T05:50:00.017Z,3.00
2022-09-12T05:51:09.090Z,3.10
2022-09-12T05:52:12.800Z,3.80
2022-09-12T05:53:15.944Z,3.60
2022-09-12T05:54:20.817Z,5.00
2022-09-12T05:55:24.608Z,4.30
2022-09-12T05:56:33.402Z,3.30
2022-09-12T05:57:36.632Z,4.00
2022-09-12T05:58:42.729Z,3.80
2022-09-12T05:59:46.206Z,4.00
2022-09-12T06:00:51.687Z,3.40
2022-09-12T06:01:54.923Z,4.00
2022-09-12T06:02:58.056Z,2.80
2022-09-12T06:04:04.791Z,3.10
2022-09-12T06:05:08.229Z,3.20
2022-09-12T06:06:15.358Z,3.20
2022-09-12T06:07:18.486Z,2.90
2022-09-12T06:08:21.598Z,3.10
2022-09-12T06:09:25.862Z,3.10
2022-09-12T06:10:29.010Z,3.10
2022-09-12T06:11:35.035Z,2.80
2022-09-12T06:12:38.250Z,3.20
2022-09-12T06:13:44.505Z,3.10
2022-09-12T06:14:48.049Z,3.20
2022-09-12T06:15:51.505Z,3.20
2022-09-12T06:16:54.802Z,3.50
2022-09-12T06:17:57.933Z,3.30
2022-09-12T06:19:07.373Z,3.20
2022-09-12T06:20:10.507Z,3.00
2022-09-12T06:21:14.212Z,2.70
2022-09-12T06:22:19.057Z,2.80
2022-09-12T06:23:22.354Z,3.00
2022-09-12T06:24:25.320Z,2.80
2022-09-12T06:25:31.416Z,3.00
2022-09-12T06:26:34.975Z,3.20
2022-09-12T06:27:38.928Z,2.80
2022-09-12T06:28:43.286Z,2.90
2022-09-12T06:29:46.387Z,3.00
2022-09-12T06:30:49.598Z,3.20
2022-09-12T06:31:52.821Z,3.40
2022-09-12T06:32:57.104Z,3.30
2022-09-12T06:34:02.631Z,3.30
2022-09-12T06:35:07.607Z,3.40
2022-09-12T06:36:26.554Z,3.20
2022-09-12T06:37:29.856Z,3.20
2022-09-12T06:38:33.560Z,3.40
2022-09-12T06:39:38.609Z,3.10
2022-09-12T06:40:46.556Z,3.20
2022-09-12T06:41:51.616Z,3.20
2022-09-12T06:42:54.814Z,3.30
2022-09-12T06:43:58.856Z,3.40
2022-09-12T06:45:01.854Z,3.40
2022-09-12T06:46:05.196Z,3.30
2022-09-12T06:47:08.707Z,3.30
2022-09-12T06:48:11.744Z,3.40
2022-09-12T06:49:15.598Z,3.30
2022-09-12T06:50:18.666Z,3.60
2022-09-12T06:51:21.917Z,3.70
2022-09-12T06:52:25.170Z,3.70
2022-09-12T06:53:30.337Z,3.60
2022-09-12T06:54:34.004Z,3.60
2022-09-12T06:55:36.967Z,3.50
2022-09-12T06:56:40.035Z,3.30
2022-09-12T06:57:44.258Z,3.50
2022-09-12T06:58:49.137Z,3.30
2022-09-12T06:59:52.141Z,3.50
2022-09-12T07:01:09.769Z,3.00
2022-09-12T07:02:13.109Z,2.90
2022-09-12T07:03:16.182Z,3.00
2022-09-12T07:04:20.571Z,3.00
2022-09-12T07:05:23.663Z,3.00
2022-09-12T07:06:34.444Z,2.80
2022-09-12T07:07:38.217Z,2.80
2022-09-12T07:08:41.366Z,3.10
2022-09-12T07:09:44.802Z,3.10
2022-09-12T07:10:47.920Z,2.90
2022-09-12T07:11:51.031Z,3.40
2022-09-12T07:12:55.301Z,3.30
2022-09-12T07:14:00.143Z,3.60
2022-09-12T07:15:05.680Z,3.10
2022-09-12T07:16:10.283Z,3.10
2022-09-12T07:17:13.510Z,3.50
2022-09-12T07:18:16.565Z,3.30
2022-09-12T07:19:19.548Z,3.50
2022-09-12T07:20:23.400Z,3.40
2022-09-12T07:21:27.104Z,3.40
2022-09-12T07:22:30.246Z,3.80
2022-09-12T07:23:33.414Z,3.40
2022-09-12T07:24:37.427Z,3.60
2022-09-12T07:25:40.400Z,3.00
2022-09-12T07:26:44.220Z,3.50
2022-09-12T07:27:51.012Z,3.20
2022-09-12T07:29:03.951Z,3.70
2022-09-12T07:30:17.900Z,3.70
2022-09-12T07:31:25.728Z,3.70
2022-09-12T07:32:28.758Z,3.40
2022-09-12T07:33:32.620Z,3.60
2022-09-12T07:34:35.942Z,4.00
2022-09-12T07:35:39.375Z,3.90
2022-09-12T07:36:42.423Z,3.90
2022-09-12T07:37:45.800Z,4.00
2022-09-12T07:38:48.962Z,3.90
2022-09-12T07:39:52.791Z,3.50
2022-09-12T07:40:55.756Z,3.60
2022-09-12T07:41:58.846Z,3.50
2022-09-12T07:43:03.376Z,3.50
2022-09-12T07:44:09.569Z,3.50
2022-09-12T07:45:13.089Z,3.40
2022-09-12T07:46:16.849Z,3.30
2022-09-12T07:47:19.860Z,3.10
2022-09-12T07:48:23.390Z,3.00
2022-09-12T07:49:30.669Z,3.10
2022-09-12T07:50:33.711Z,2.70
2022-09-12T07:51:36.802Z,3.10
2022-09-12T07:52:40.022Z,2.90
2022-09-12T07:53:43.582Z,2.80
2022-09-12T07:54:46.558Z,3.00
2022-09-12T07:55:56.772Z,2.60
2022-09-12T07:56:59.938Z,3.00
2022-09-12T07:58:03.885Z,2.40
2022-09-12T07:59:08.260Z,2.60
2022-09-12T08:00:11.645Z,2.50
2022-09-12T08:01:20.659Z,2.50
2022-09-12T08:02:23.714Z,2.30
2022-09-12T08:03:26.748Z,2.60
2022-09-12T08:04:30.694Z,2.30
2022-09-12T08:05:33.634Z,2.60
2022-09-12T08:06:37.137Z,2.30
2022-09-12T08:07:40.271Z,2.40
2022-09-12T08:08:44.082Z,2.40
2022-09-12T08:09:47.619Z,2.30
2022-09-12T08:10:57.732Z,2.50
2022-09-12T08:12:01.026Z,2.60
2022-09-12T08:13:04.198Z,2.40
2022-09-12T08:14:07.263Z,2.70
2022-09-12T08:15:10.550Z,2.40
2022-09-12T08:16:22.227Z,2.40
2022-09-12T08:17:25.972Z,2.50
2022-09-12T08:18:30.210Z,2.40
2022-09-12T08:19:33.205Z,2.20
2022-09-12T08:20:37.408Z,2.60
2022-09-12T08:21:40.389Z,2.30
2022-09-12T08:22:43.589Z,2.50
2022-09-12T08:23:47.599Z,2.60
2022-09-12T08:24:51.180Z,2.50
2022-09-12T08:25:57.437Z,2.50
2022-09-12T08:27:00.430Z,2.40
2022-09-12T08:28:03.600Z,2.30
2022-09-12T08:29:09.477Z,2.50
2022-09-12T08:30:13.744Z,2.20
2022-09-12T08:31:19.298Z,2.50
2022-09-12T08:32:22.281Z,2.10
2022-09-12T08:33:27.490Z,2.10
2022-09-12T08:34:30.605Z,2.30
2022-09-12T08:35:36.592Z,2.20
2022-09-12T08:36:39.988Z,2.50
2022-09-12T08:37:43.090Z,2.20
2022-09-12T08:38:48.161Z,2.60
2022-09-12T08:39:53.212Z,2.40
2022-09-12T08:41:18.231Z,2.20
2022-09-12T08:42:45.797Z,2.20
2022-09-12T08:44:10.459Z,2.20
2022-09-12T08:45:23.018Z,2.50
2022-09-12T08:46:33.738Z,2.30
2022-09-12T08:47:41.738Z,2.60
2022-09-12T08:48:46.981Z,2.50
2022-09-12T08:50:08.362Z,2.30
2022-09-12T08:51:14.240Z,2.10
2022-09-12T08:52:48.584Z,2.20
2022-09-12T08:53:56.585Z,2.30
2022-09-12T08:55:01.165Z,2.20
2022-09-12T08:56:08.596Z,2.40
2022-09-12T08:57:13.070Z,2.20
2022-09-12T08:58:24.598Z,2.20
2022-09-12T08:59:38.328Z,2.10
2022-09-12T09:01:07.593Z,2.20
2022-09-12T09:02:48.754Z,2.00
2022-09-12T09:04:10.785Z,1.90
2022-09-12T09:05:20.565Z,1.80
2022-09-12T09:06:44.361Z,2.00
2022-09-12T09:08:15.826Z,1.90
2022-09-12T09:09:36.914Z,1.90
2022-09-12T09:11:01.014Z,1.90
2022-09-12T09:12:07.219Z,1.90
2022-09-12T09:13:13.470Z,1.80
2022-09-12T09:14:48.913Z,1.90
2022-09-12T09:16:03.028Z,1.90
2022-09-12T09:17:34.112Z,1.80
2022-09-12T09:18:38.476Z,1.70
2022-09-12T09:19:50.798Z,1.70
2022-09-12T09:21:03.656Z,1.80
2022-09-12T09:22:37.596Z,1.80
2022-09-12T09:23:45.023Z,1.80
2022-09-12T09:25:04.803Z,2.00
2022-09-12T09:26:27.830Z,1.80
2022-09-12T09:27:57.726Z,1.70
2022-09-12T09:29:12.388Z,1.80
2022-09-12T09:30:19.078Z,1.80
2022-09-12T09:31:28.653Z,1.90
2022-09-12T09:32:38.381Z,1.80
2022-09-12T09:33:41.619Z,1.70
2022-09-12T09:34:46.474Z,1.50
2022-09-12T09:36:10.940Z,1.50
2022-09-12T09:37:21.049Z,1.40
2022-09-12T09:38:34.948Z,1.40
2022-09-12T09:40:19.784Z,1.30
2022-09-12T09:41:31.347Z,1.40
2022-09-12T09:42:47.159Z,1.50
2022-09-12T09:43:50.472Z,1.50
2022-09-12T09:44:56.513Z,1.40
2022-09-12T09:46:00.775Z,1.60
2022-09-12T09:47:04.121Z,1.60
2022-09-12T09:48:19.655Z,1.80
2022-09-12T09:49:23.831Z,1.50
2022-09-12T09:50:27.157Z,1.50
2022-09-12T09:51:36.520Z,1.40
2022-09-12T09:52:40.483Z,1.40
2022-09-12T09:53:47.097Z,1.30
2022-09-12T09:54:55.428Z,1.30
2022-09-12T09:56:03.780Z,1.50
2022-09-12T09:57:36.045Z,1.40
2022-09-12T09:58:40.463Z,1.30
2022-09-12T09:59:43.482Z,1.40
2022-09-12T10:00:47.995Z,1.30
2022-09-12T10:02:04.045Z,1.40
2022-09-12T10:03:13.735Z,1.20
2022-09-12T10:04:29.609Z,1.10
2022-09-12T10:05:36.097Z,1.20
2022-09-12T10:06:40.350Z,1.20
2022-09-12T10:07:50.944Z,1.10
2022-09-12T10:09:24.539Z,1.10
2022-09-12T10:10:27.831Z,1.20
2022-09-12T10:11:32.964Z,1.30
2022-09-12T10:12:39.249Z,1.40
2022-09-12T10:13:54.755Z,1.30
2022-09-12T10:15:02.685Z,1.20
2022-09-12T10:16:19.488Z,1.20
2022-09-12T10:17:34.196Z,1.20
2022-09-12T10:18:42.647Z,1.10
2022-09-12T10:19:52.695Z,1.20
2022-09-12T10:21:50.945Z,1.20
2022-09-12T10:22:54.131Z,1.20
2022-09-12T10:24:17.092Z,1.30
2022-09-12T10:25:21.531Z,1.20
2022-09-12T10:26:33.388Z,1.30
2022-09-12T10:27:36.946Z,1.30
2022-09-12T10:28:43.895Z,1.20
2022-09-12T10:30:21.859Z,1.20
2022-09-12T10:31:43.365Z,1.10
2022-09-12T10:32:52.233Z,1.00
2022-09-12T10:34:28.345Z,1.30
2022-09-12T10:35:44.048Z,1.00
2022-09-12T10:36:54.521Z,1.10
2022-09-12T10:38:02.566Z,1.20
2022-09-12T10:39:07.182Z,1.20
2022-09-12T10:40:24.159Z,1.10
2022-09-12T10:41:37.560Z,1.30
2022-09-12T10:42:51.025Z,1.10
2022-09-12T10:44:07.269Z,1.20
2022-09-12T10:45:22.905Z,1.20
2022-09-12T10:46:31.570Z,1.30
2022-09-12T10:47:34.780Z,1.10
2022-09-12T10:48:38.996Z,1.30
2022-09-12T10:49:42.031Z,1.10
2022-09-12T10:50:45.058Z,1.20
2022-09-12T10:51:49.164Z,1.20
2022-09-12T10:52:53.014Z,1.30
2022-09-12T10:54:00.113Z,1.10
2022-09-12T10:55:03.400Z,1.20
2022-09-12T10:56:33.848Z,2.00
2022-09-12T10:57:39.643Z,2.60
2022-09-12T10:58:51.433Z,2.10
2022-09-12T11:00:18.074Z,1.90
2022-09-12T11:01:47.394Z,1.80
2022-09-12T11:03:16.281Z,1.80
2022-09-12T11:05:07.596Z,2.50
2022-09-12T11:06:16.896Z,2.50
2022-09-12T11:08:02.812Z,2.60
2022-09-12T11:09:27.637Z,2.70
2022-09-12T11:11:00.417Z,2.50
2022-09-12T11:12:20.268Z,2.60
2022-09-12T11:13:37.376Z,2.40
2022-09-12T11:15:00.855Z,2.20
2022-09-12T11:16:35.030Z,1.80
2022-09-12T11:17:52.213Z,2.00
2022-09-12T11:19:10.049Z,2.00
2022-09-12T11:20:21.965Z,2.00
2022-09-12T11:21:27.728Z,1.90
2022-09-12T11:23:11.984Z,2.10
2022-09-12T11:24:29.499Z,2.80
2022-09-12T11:25:46.369Z,2.80
2022-09-12T11:26:54.981Z,3.00
2022-09-12T11:28:17.558Z,3.10
2022-09-12T11:29:41.328Z,2.80
2022-09-12T11:31:08.218Z,2.60
2022-09-12T11:32:42.081Z,3.80
2022-09-12T11:33:53.935Z,3.20
2022-09-12T11:35:25.396Z,3.30
2022-09-12T11:36:40.624Z,3.30
2022-09-12T11:37:49.771Z,3.40
2022-09-12T11:39:02.360Z,3.00
2022-09-12T11:40:34.318Z,3.20
2022-09-12T11:41:41.895Z,3.00
2022-09-12T11:42:47.793Z,2.90
2022-09-12T11:43:51.999Z,3.00
2022-09-12T11:45:13.184Z,3.10
2022-09-12T11:46:18.868Z,2.60
2022-09-12T11:47:25.781Z,2.60
2022-09-12T11:48:59.533Z,2.70
2022-09-12T11:50:16.189Z,2.70
2022-09-12T11:51:24.087Z,2.70
2022-09-12T11:52:39.040Z,2.50
2022-09-12T11:53:45.511Z,2.50
2022-09-12T11:55:09.472Z,2.30
2022-09-12T11:56:18.319Z,2.10
2022-09-12T11:57:25.552Z,2.50
2022-09-12T11:58:31.773Z,2.90
2022-09-12T11:59:45.861Z,2.40
2022-09-12T12:00:53.489Z,2.70
2022-09-12T12:02:00.136Z,2.20
2022-09-12T12:03:10.734Z,2.70
2022-09-12T12:04:19.029Z,2.00
2022-09-12T12:05:27.201Z,2.20
2022-09-12T12:06:52.973Z,2.20
2022-09-12T12:07:59.011Z,2.00
2022-09-12T12:09:04.694Z,2.30
2022-09-12T12:10:24.471Z,2.20
2022-09-12T12:11:35.922Z,2.10
2022-09-12T12:12:39.194Z,2.00
2022-09-12T12:13:51.294Z,2.20
2022-09-12T12:14:59.541Z,2.10
2022-09-12T12:16:05.548Z,2.00
2022-09-12T12:17:20.102Z,1.90
2022-09-12T12:18:26.116Z,2.10
2022-09-12T12:19:38.187Z,2.10
2022-09-12T12:20:41.730Z,2.10
2022-09-12T12:21:47.664Z,2.30
2022-09-12T12:22:57.044Z,2.50
2022-09-12T12:24:09.285Z,2.20
2022-09-12T12:25:12.530Z,1.90
2022-09-12T12:26:40.302Z,2.00
2022-09-12T12:27:53.805Z,2.20
2022-09-12T12:28:59.586Z,2.00
2022-09-12T12:30:02.842Z,2.30
2022-09-12T12:31:06.021Z,2.30
2022-09-12T12:32:11.729Z,2.40
2022-09-12T12:33:14.843Z,2.10
2022-09-12T12:34:28.145Z,2.00
2022-09-12T12:35:56.890Z,2.00
2022-09-12T12:37:19.409Z,1.70
2022-09-12T12:38:32.645Z,2.00
2022-09-12T12:39:41.433Z,1.80
2022-09-12T12:40:44.572Z,1.80
2022-09-12T12:41:47.711Z,2.20
2022-09-12T12:43:04.758Z,2.20
2022-09-12T12:44:48.686Z,2.40
2022-09-12T12:46:09.707Z,2.30
2022-09-12T12:47:36.787Z,2.20
2022-09-12T12:49:19.020Z,2.20
2022-09-12T12:50:27.485Z,2.20
2022-09-12T12:51:44.361Z,2.20
2022-09-12T12:52:47.429Z,2.20
2022-09-12T12:53:52.361Z,2.10
2022-09-12T12:55:03.561Z,2.10
2022-09-12T12:56:44.094Z,2.10
2022-09-12T12:57:55.842Z,2.20
2022-09-12T12:59:02.639Z,2.20
2022-09-12T13:00:30.851Z,2.20
2022-09-12T13:01:41.179Z,2.20
2022-09-12T13:02:56.391Z,2.40
2022-09-12T13:04:01.678Z,2.40
2022-09-12T13:05:16.736Z,2.50
2022-09-12T13:06:37.848Z,2.40
2022-09-12T13:07:41.139Z,2.60
2022-09-12T13:09:00.157Z,2.50
2022-09-12T13:10:05.830Z,2.10
2022-09-12T13:11:14.753Z,2.40
2022-09-12T13:12:37.178Z,2.50
2022-09-12T13:13:52.566Z,2.30
2022-09-12T13:15:00.618Z,2.60
2022-09-12T13:16:04.039Z,2.30
2022-09-12T13:17:08.691Z,2.30
2022-09-12T13:18:42.694Z,2.10
2022-09-12T13:19:47.498Z,2.40
2022-09-12T13:21:04.361Z,2.20
2022-09-12T13:22:10.756Z,2.40
2022-09-12T13:23:31.867Z,2.60
2022-09-12T13:24:44.887Z,2.20
2022-09-12T13:25:54.737Z,2.40
2022-09-12T13:26:59.060Z,2.20
2022-09-12T13:28:20.527Z,2.30
2022-09-12T13:29:26.213Z,2.20
2022-09-12T13:30:35.168Z,2.10
2022-09-12T13:31:39.515Z,2.00
2022-09-12T13:32:47.298Z,2.10
2022-09-12T13:33:55.235Z,2.30
2022-09-12T13:35:23.231Z,2.00
2022-09-12T13:36:40.573Z,2.20
2022-09-12T13:37:57.163Z,2.10
2022-09-12T13:39:50.102Z,2.10
2022-09-12T13:41:19.191Z,1.90
2022-09-12T13:42:48.956Z,2.00
2022-09-12T13:43:54.848Z,2.10
2022-09-12T13:45:06.001Z,2.10
2022-09-12T13:46:14.737Z,2.30
2022-09-12T13:47:30.269Z,2.10
2022-09-12T13:48:35.419Z,1.90
2022-09-12T13:49:41.426Z,2.20
2022-09-12T13:50:58.298Z,2.20
2022-09-12T13:52:04.310Z,2.10
2022-09-12T13:53:15.938Z,2.20
2022-09-12T13:54:24.309Z,2.30
2022-09-12T13:55:40.944Z,2.00
2022-09-12T13:56:49.484Z,2.20
2022-09-12T13:58:06.826Z,2.30
2022-09-12T13:59:13.137Z,2.10
2022-09-12T14:00:22.600Z,2.30
2022-09-12T14:01:39.146Z,2.40
2022-09-12T14:02:42.414Z,2.20
2022-09-12T14:04:15.090Z,2.10
2022-09-12T14:05:24.397Z,2.10
2022-09-12T14:06:27.870Z,2.50
2022-09-12T14:07:32.140Z,2.00
2022-09-12T14:08:41.456Z,2.10
2022-09-12T14:09:47.230Z,2.00
2022-09-12T14:10:53.873Z,2.40
2022-09-12T14:11:58.000Z,2.10
2022-09-12T14:13:04.447Z,2.00
2022-09-12T14:14:22.162Z,2.30
2022-09-12T14:15:29.406Z,2.10
2022-09-12T14:16:40.283Z,2.20
2022-09-12T14:17:51.973Z,1.90
2022-09-12T14:18:56.502Z,2.20
2022-09-12T14:20:04.121Z,2.30
2022-09-12T14:21:23.110Z,2.20
2022-09-12T14:22:32.083Z,2.40
2022-09-12T14:23:36.639Z,2.30
2022-09-12T14:24:40.147Z,2.10
2022-09-12T14:25:45.344Z,2.40
2022-09-12T14:26:50.745Z,2.20
2022-09-12T14:27:56.061Z,2.30
2022-09-12T14:29:00.680Z,2.20
2022-09-12T14:30:09.211Z,2.40
2022-09-12T14:31:18.499Z,2.20
2022-09-12T14:32:24.635Z,2.40
2022-09-12T14:33:29.341Z,2.10
2022-09-12T14:34:32.445Z,2.20
2022-09-12T14:35:40.265Z,2.30
2022-09-12T14:36:50.995Z,2.30
2022-09-12T14:37:54.249Z,2.40
2022-09-12T14:39:02.277Z,2.30
2022-09-12T14:40:19.156Z,2.50
2022-09-12T14:41:26.361Z,2.60
2022-09-12T14:42:32.313Z,2.60
2022-09-12T14:43:44.744Z,2.20
2022-09-12T14:44:53.625Z,2.40
2022-09-12T14:45:59.959Z,2.40
2022-09-12T14:47:23.474Z,2.10
2022-09-12T14:48:32.042Z,1.90
2022-09-12T14:49:36.945Z,2.40
2022-09-12T14:50:42.216Z,2.20
2022-09-12T14:51:51.599Z,2.10
2022-09-12T14:53:38.019Z,2.20
2022-09-12T14:54:44.122Z,2.00
2022-09-12T14:56:11.699Z,2.10
2022-09-12T14:57:39.760Z,2.10
2022-09-12T14:58:42.982Z,1.80
2022-09-12T14:59:46.169Z,2.30
2022-09-12T15:00:53.155Z,2.20
2022-09-12T15:02:20.746Z,2.00
2022-09-12T15:03:36.413Z,2.30
2022-09-12T15:04:45.392Z,2.10
2022-09-12T15:05:50.181Z,2.40
2022-09-12T15:06:54.143Z,2.00
2022-09-12T15:08:02.217Z,2.10
2022-09-12T15:09:13.936Z,2.20
2022-09-12T15:10:37.897Z,2.40
2022-09-12T15:11:41.087Z,2.20
2022-09-12T15:12:44.153Z,2.20
2022-09-12T15:13:47.510Z,2.20
2022-09-12T15:14:50.648Z,2.10
2022-09-12T15:16:02.803Z,2.00
2022-09-12T15:17:10.390Z,1.90
2022-09-12T15:18:14.237Z,2.10
2022-09-12T15:19:17.825Z,2.10
2022-09-12T15:20:21.186Z,2.30
2022-09-12T15:21:24.505Z,2.10
2022-09-12T15:22:28.088Z,2.10
2022-09-12T15:23:43.257Z,2.20
2022-09-12T15:24:52.053Z,2.00
2022-09-12T15:26:02.173Z,2.10
2022-09-12T15:27:11.155Z,2.10
2022-09-12T15:28:18.710Z,2.40
2022-09-12T15:29:21.874Z,2.30
2022-09-12T15:30:24.930Z,2.60
2022-09-12T15:31:32.370Z,2.30